Time;durP1;ratioP1;P1;durP2;ratioP2;P2;SDS_P1;SDS_P2;PMS_P1;PMS_P2;Temp;Humidity;BMP_temperature;BMP_pressure;BME280_temperature;BME280_humidity;BME280_pressure;Samples;Min_cycle;Max_cycle;Signal;HPM_P1;HPM_P2
2022/10/14 00:00:33;;;;;;;32.63;16.13;;;;;;;;;;5032153;28;20034;-75
2022/10/14 00:02:58;;;;;;;28.92;14.93;;;;;;;;;;5033462;28;20035;-75
2022/10/14 00:05:24;;;;;;;33.10;15.27;;;;;;;;;;5033780;28;20033;-75
2022/10/14 00:07:49;;;;;;;31.15;15.43;;;;;;;;;;5032222;28;20532;-75
2022/10/14 00:10:15;;;;;;;28.02;15.30;;;;;;;;;;5032089;28;20104;-75
2022/10/14 00:12:40;;;;;;;25.63;14.82;;;;;;;;;;5033335;28;20053;-75
2022/10/14 00:15:06;;;;;;;28.92;15.30;;;;;;;;;;5033484;28;20029;-76
2022/10/14 00:17:31;;;;;;;28.63;14.82;;;;;;;;;;5031995;28;20021;-75
2022/10/14 00:19:56;;;;;;;25.00;14.93;;;;;;;;;;5033305;28;20394;-75
2022/10/14 00:22:22;;;;;;;27.05;15.77;;;;;;;;;;5031946;28;20083;-76
2022/10/14 00:24:47;;;;;;;32.45;15.55;;;;;;;;;;5033308;28;20029;-75
2022/10/14 00:27:12;;;;;;;25.17;14.55;;;;;;;;;;5033170;28;20029;-74
2022/10/14 00:29:37;;;;;;;30.48;15.48;;;;;;;;;;5033092;28;20029;-74
2022/10/14 00:32:03;;;;;;;30.55;15.50;;;;;;;;;;5033202;28;20437;-74
2022/10/14 00:34:28;;;;;;;26.55;14.65;;;;;;;;;;5033361;28;20025;-74
2022/10/14 00:36:54;;;;;;;26.20;15.32;;;;;;;;;;5033002;28;20483;-75
2022/10/14 00:39:19;;;;;;;29.50;15.73;;;;;;;;;;5031726;28;20017;-75
2022/10/14 00:41:44;;;;;;;27.70;15.32;;;;;;;;;;5031722;28;20475;-75
2022/10/14 00:44:09;;;;;;;27.77;14.52;;;;;;;;;;5031717;28;20033;-75
2022/10/14 00:46:44;;;;;;;30.23;15.57;;;;;;;;;;5028090;28;20029;-75
2022/10/14 00:49:17;;;;;;;29.73;15.07;;;;;;;;;;5027557;28;20372;-75
2022/10/14 00:51:48;;;;;;;30.43;15.07;;;;;;;;;;5029713;28;20059;-75
2022/10/14 00:54:16;;;;;;;24.70;14.20;;;;;;;;;;5029476;28;20116;-75
2022/10/14 00:56:43;;;;;;;30.98;15.57;;;;;;;;;;5029121;28;20091;-75
2022/10/14 00:59:09;;;;;;;29.92;15.85;;;;;;;;;;5029310;28;20072;-74
2022/10/14 01:01:34;;;;;;;26.80;15.52;;;;;;;;;;5028819;28;20457;-75
2022/10/14 01:04:00;;;;;;;31.65;15.55;;;;;;;;;;5029127;28;20553;-75
2022/10/14 01:06:43;;;;;;;24.40;14.55;;;;;;;;;;5030871;28;20037;-75
2022/10/14 01:09:28;;;;;;;22.58;14.77;;;;;;;;;;5033122;28;20091;-74
2022/10/14 01:12:12;;;;;;;23.67;13.93;;;;;;;;;;5033053;28;20026;-75
2022/10/14 01:15:03;;;;;;;28.73;16.60;;;;;;;;;;5031497;28;20075;-75
2022/10/14 01:17:51;;;;;;;26.65;15.55;;;;;;;;;;5031650;28;20029;-76
2022/10/14 01:20:42;;;;;;;28.50;14.82;;;;;;;;;;5033021;28;20033;-75
2022/10/14 01:23:25;;;;;;;25.00;15.32;;;;;;;;;;5033031;28;20037;-75
2022/10/14 01:26:08;;;;;;;25.85;15.05;;;;;;;;;;5032760;28;20021;-76
2022/10/14 01:28:51;;;;;;;27.33;15.05;;;;;;;;;;5032802;28;20036;-75
2022/10/14 01:31:22;;;;;;;26.52;15.52;;;;;;;;;;5032891;28;20029;-75
2022/10/14 01:33:53;;;;;;;31.42;15.57;;;;;;;;;;5031448;28;20037;-76
2022/10/14 01:36:40;;;;;;;25.95;15.48;;;;;;;;;;5032684;28;20116;-76
2022/10/14 01:39:13;;;;;;;26.67;16.25;;;;;;;;;;5031385;28;20025;-76
2022/10/14 01:41:43;;;;;;;29.35;16.00;;;;;;;;;;5032558;28;20029;-76
2022/10/14 01:44:11;;;;;;;28.58;16.20;;;;;;;;;;5032575;28;20095;-76
2022/10/14 01:46:39;;;;;;;38.25;17.23;;;;;;;;;;5032585;28;20029;-76
2022/10/14 01:49:09;;;;;;;27.13;15.85;;;;;;;;;;5032210;28;20422;-77
2022/10/14 01:51:40;;;;;;;31.77;16.67;;;;;;;;;;5032450;28;20064;-75
2022/10/14 01:54:11;;;;;;;29.48;15.70;;;;;;;;;;5031549;28;20028;-75
2022/10/14 01:56:38;;;;;;;29.63;15.77;;;;;;;;;;5032725;28;20029;-78
2022/10/14 01:59:04;;;;;;;27.73;16.35;;;;;;;;;;5030902;28;20021;-73
2022/10/14 02:01:29;;;;;;;32.30;15.57;;;;;;;;;;5031780;28;20112;-74
2022/10/14 02:03:54;;;;;;;29.63;15.98;;;;;;;;;;5030872;28;20372;-74
2022/10/14 02:06:29;;;;;;;30.02;16.35;;;;;;;;;;5032315;28;20043;-74
2022/10/14 02:09:07;;;;;;;28.77;15.63;;;;;;;;;;5032014;28;20045;-75
2022/10/14 02:11:42;;;;;;;28.13;16.55;;;;;;;;;;5032069;28;20030;-75
2022/10/14 02:14:34;;;;;;;24.83;15.95;;;;;;;;;;5031736;28;20116;-75
2022/10/14 02:17:28;;;;;;;29.83;15.85;;;;;;;;;;5023265;28;20410;-75
2022/10/14 02:19:59;;;;;;;27.83;16.38;;;;;;;;;;5031991;28;20037;-75
2022/10/14 02:22:42;;;;;;;30.67;15.77;;;;;;;;;;5030556;28;20033;-75
2022/10/14 02:25:17;;;;;;;32.90;17.02;;;;;;;;;;5031424;28;20091;-75
2022/10/14 02:27:43;;;;;;;32.72;16.85;;;;;;;;;;5031870;28;20494;-75
2022/10/14 02:30:10;;;;;;;26.25;16.00;;;;;;;;;;5031816;28;20044;-70
2022/10/14 02:32:36;;;;;;;31.85;16.83;;;;;;;;;;5031548;28;20063;-70
2022/10/14 02:35:03;;;;;;;28.30;16.27;;;;;;;;;;5032007;28;20032;-68
2022/10/14 02:37:30;;;;;;;28.30;16.25;;;;;;;;;;5031194;28;20108;-70
2022/10/14 02:40:22;;;;;;;31.02;17.02;;;;;;;;;;5030424;28;20048;-69
2022/10/14 02:42:48;;;;;;;34.67;17.38;;;;;;;;;;5032364;28;20136;-70
2022/10/14 02:45:14;;;;;;;35.17;17.23;;;;;;;;;;5033529;28;20105;-70
2022/10/14 02:47:39;;;;;;;30.77;17.08;;;;;;;;;;5033554;28;20032;-70
2022/10/14 02:50:05;;;;;;;33.03;17.90;;;;;;;;;;5032455;28;20116;-70
2022/10/14 02:52:31;;;;;;;35.55;19.10;;;;;;;;;;5032494;28;20025;-71
2022/10/14 02:54:56;;;;;;;34.63;19.23;;;;;;;;;;5032730;28;20029;-69
2022/10/14 02:57:21;;;;;;;34.10;18.90;;;;;;;;;;5031516;28;20041;-69
2022/10/14 02:59:46;;;;;;;33.85;18.63;;;;;;;;;;5032542;28;20021;-70
2022/10/14 03:02:12;;;;;;;29.73;19.00;;;;;;;;;;5031604;28;20033;-69
2022/10/14 03:04:37;;;;;;;36.33;20.10;;;;;;;;;;5032420;28;20392;-71
2022/10/14 03:07:03;;;;;;;33.42;19.55;;;;;;;;;;5032153;28;20041;-70
2022/10/14 03:09:28;;;;;;;38.20;19.88;;;;;;;;;;5031780;28;20036;-70
2022/10/14 03:11:53;;;;;;;35.50;20.40;;;;;;;;;;5031950;28;20025;-70
2022/10/14 03:14:19;;;;;;;31.75;18.77;;;;;;;;;;5032027;28;20290;-71
2022/10/14 03:16:44;;;;;;;30.83;18.48;;;;;;;;;;5032383;28;20037;-70
2022/10/14 03:19:09;;;;;;;38.13;18.85;;;;;;;;;;5031586;28;20109;-70
2022/10/14 03:21:34;;;;;;;30.50;18.40;;;;;;;;;;5031380;28;20454;-69
2022/10/14 03:24:00;;;;;;;32.75;18.55;;;;;;;;;;5030655;28;20033;-71
2022/10/14 03:26:26;;;;;;;37.88;18.42;;;;;;;;;;5030531;28;20025;-78
2022/10/14 03:28:51;;;;;;;34.25;18.63;;;;;;;;;;5029629;28;20395;-73
2022/10/14 03:31:17;;;;;;;33.20;18.77;;;;;;;;;;5030301;28;20037;-73
2022/10/14 03:33:42;;;;;;;32.00;18.33;;;;;;;;;;5030535;28;20021;-73
2022/10/14 03:36:07;;;;;;;32.47;18.60;;;;;;;;;;5030511;28;20075;-75
2022/10/14 03:38:33;;;;;;;50.08;18.67;;;;;;;;;;5029022;28;20021;-74
2022/10/14 03:40:58;;;;;;;32.83;18.33;;;;;;;;;;5030756;28;20087;-74
2022/10/14 03:43:23;;;;;;;35.78;17.80;;;;;;;;;;5030616;28;20021;-74
2022/10/14 03:45:49;;;;;;;35.92;18.35;;;;;;;;;;5030487;28;20021;-74
2022/10/14 03:48:14;;;;;;;28.08;17.27;;;;;;;;;;5028667;28;20116;-74
2022/10/14 03:50:39;;;;;;;34.25;17.35;;;;;;;;;;5028354;28;20375;-74
2022/10/14 03:53:04;;;;;;;29.27;17.65;;;;;;;;;;5029816;28;20033;-74
2022/10/14 03:55:30;;;;;;;32.97;17.98;;;;;;;;;;5030075;28;20036;-74
2022/10/14 03:57:55;;;;;;;32.20;18.05;;;;;;;;;;5030055;28;20029;-75
2022/10/14 04:00:21;;;;;;;35.53;18.40;;;;;;;;;;5028467;28;20476;-75
2022/10/14 04:02:46;;;;;;;32.17;17.50;;;;;;;;;;5029626;28;20071;-75
2022/10/14 04:05:12;;;;;;;28.88;17.67;;;;;;;;;;5029881;28;20048;-75
2022/10/14 04:07:38;;;;;;;31.27;19.15;;;;;;;;;;5029859;28;20066;-75
2022/10/14 04:10:04;;;;;;;35.33;18.73;;;;;;;;;;5029964;28;20030;-74
2022/10/14 04:12:29;;;;;;;33.72;18.98;;;;;;;;;;5029629;28;20032;-75
2022/10/14 04:14:58;;;;;;;31.92;18.30;;;;;;;;;;5028047;28;20029;-75
2022/10/14 04:17:23;;;;;;;37.65;18.27;;;;;;;;;;5029817;28;20028;-75
2022/10/14 04:19:50;;;;;;;39.22;17.58;;;;;;;;;;5029989;28;20025;-75
2022/10/14 04:22:15;;;;;;;34.45;18.75;;;;;;;;;;5028265;28;20610;-73
2022/10/14 04:24:40;;;;;;;31.23;17.27;;;;;;;;;;5030202;28;20120;-76
2022/10/14 04:27:06;;;;;;;30.38;17.95;;;;;;;;;;5029830;28;20033;-74
2022/10/14 04:29:31;;;;;;;30.58;17.48;;;;;;;;;;5029515;28;20032;-75
2022/10/14 04:31:57;;;;;;;39.80;18.23;;;;;;;;;;5029578;28;20033;-75
2022/10/14 04:34:22;;;;;;;29.23;17.67;;;;;;;;;;5029938;28;20036;-73
2022/10/14 04:36:47;;;;;;;31.70;18.33;;;;;;;;;;5029460;28;20487;-74
2022/10/14 04:39:14;;;;;;;36.90;18.65;;;;;;;;;;5029320;28;20111;-75
2022/10/14 04:41:39;;;;;;;41.63;18.88;;;;;;;;;;5028241;28;20114;-74
2022/10/14 04:44:04;;;;;;;38.28;19.98;;;;;;;;;;5029410;28;20810;-75
2022/10/14 04:46:30;;;;;;;32.33;18.55;;;;;;;;;;5029298;28;20025;-74
2022/10/14 04:48:55;;;;;;;37.78;19.05;;;;;;;;;;5027770;28;20067;-73
2022/10/14 04:51:21;;;;;;;34.65;19.05;;;;;;;;;;5029138;28;20033;-73
2022/10/14 04:53:46;;;;;;;33.70;19.35;;;;;;;;;;5031724;28;20079;-74
2022/10/14 04:56:11;;;;;;;32.90;18.70;;;;;;;;;;5029225;28;20494;-74
2022/10/14 04:58:37;;;;;;;40.17;19.75;;;;;;;;;;5029332;28;20132;-74
2022/10/14 05:01:02;;;;;;;40.28;19.15;;;;;;;;;;5029082;28;20057;-73
2022/10/14 05:03:27;;;;;;;29.80;18.48;;;;;;;;;;5027443;28;20044;-74
2022/10/14 05:05:53;;;;;;;37.67;20.45;;;;;;;;;;5028141;28;20064;-74
2022/10/14 05:08:18;;;;;;;37.78;19.83;;;;;;;;;;5028971;28;20541;-75
2022/10/14 05:10:44;;;;;;;36.35;19.70;;;;;;;;;;5029239;28;20033;-74
2022/10/14 05:13:09;;;;;;;36.03;20.20;;;;;;;;;;5027948;28;20031;-74
2022/10/14 05:15:34;;;;;;;32.97;20.10;;;;;;;;;;5028804;28;20069;-74
2022/10/14 05:18:00;;;;;;;37.20;19.88;;;;;;;;;;5029029;28;20036;-74
2022/10/14 05:20:25;;;;;;;31.08;19.13;;;;;;;;;;5029064;28;20025;-74
2022/10/14 05:22:51;;;;;;;40.42;20.77;;;;;;;;;;5029311;28;20651;-75
2022/10/14 05:25:16;;;;;;;34.00;19.00;;;;;;;;;;5029108;28;20026;-74
2022/10/14 05:27:41;;;;;;;36.13;20.27;;;;;;;;;;5028708;28;20079;-74
2022/10/14 05:30:10;;;;;;;40.50;19.85;;;;;;;;;;5028898;28;20092;-74
2022/10/14 05:32:35;;;;;;;38.97;19.40;;;;;;;;;;5028879;28;20029;-74
2022/10/14 05:35:01;;;;;;;38.30;19.77;;;;;;;;;;5028934;28;20060;-74
2022/10/14 05:37:26;;;;;;;36.13;19.77;;;;;;;;;;5028855;28;20037;-74
2022/10/14 05:39:51;;;;;;;36.83;19.92;;;;;;;;;;5028491;28;20072;-74
2022/10/14 05:42:17;;;;;;;34.53;19.63;;;;;;;;;;5029184;28;20045;-74
2022/10/14 05:44:42;;;;;;;39.50;19.98;;;;;;;;;;5029178;28;20053;-74
2022/10/14 05:47:09;;;;;;;38.83;20.38;;;;;;;;;;5028883;28;20025;-73
2022/10/14 05:49:34;;;;;;;34.97;18.73;;;;;;;;;;5028822;28;20030;-74
2022/10/14 05:51:59;;;;;;;36.88;19.70;;;;;;;;;;5029210;28;20036;-73
2022/10/14 05:54:24;;;;;;;34.95;19.45;;;;;;;;;;5032401;28;20592;-74
2022/10/14 05:56:50;;;;;;;36.03;19.75;;;;;;;;;;5032325;28;20036;-73
2022/10/14 05:59:15;;;;;;;38.67;21.30;;;;;;;;;;5032262;28;20025;-74
2022/10/14 06:01:41;;;;;;;37.45;20.10;;;;;;;;;;5032072;28;20352;-74
2022/10/14 06:04:07;;;;;;;34.40;18.60;;;;;;;;;;5030422;28;20479;-74
2022/10/14 06:06:32;;;;;;;32.85;19.02;;;;;;;;;;5032151;28;20033;-74
2022/10/14 06:08:57;;;;;;;37.85;20.85;;;;;;;;;;5032318;28;20025;-74
2022/10/14 06:11:23;;;;;;;37.58;20.58;;;;;;;;;;5032056;28;20725;-75
2022/10/14 06:13:48;;;;;;;37.50;18.70;;;;;;;;;;5032133;28;20433;-72
2022/10/14 06:16:14;;;;;;;44.05;19.38;;;;;;;;;;5031613;28;20029;-74
2022/10/14 06:18:39;;;;;;;36.92;19.60;;;;;;;;;;5032628;28;20050;-74
2022/10/14 06:21:06;;;;;;;36.15;19.40;;;;;;;;;;5031801;28;20025;-74
2022/10/14 06:23:31;;;;;;;35.65;19.50;;;;;;;;;;5031883;28;20100;-74
2022/10/14 06:25:56;;;;;;;31.35;18.55;;;;;;;;;;5031684;28;20112;-74
2022/10/14 06:28:22;;;;;;;41.25;19.40;;;;;;;;;;5031444;28;20339;-74
2022/10/14 06:30:53;;;;;;;32.00;18.13;;;;;;;;;;5030405;28;20033;-74
2022/10/14 06:33:20;;;;;;;33.88;18.58;;;;;;;;;;5031698;28;20029;-74
2022/10/14 06:35:46;;;;;;;37.20;19.58;;;;;;;;;;5030202;28;20071;-74
2022/10/14 06:38:11;;;;;;;35.70;19.45;;;;;;;;;;5031637;28;20108;-74
2022/10/14 06:40:37;;;;;;;34.45;19.27;;;;;;;;;;5031345;28;20502;-74
2022/10/14 06:43:03;;;;;;;38.60;19.15;;;;;;;;;;5030038;28;20335;-74
2022/10/14 06:45:28;;;;;;;37.85;19.20;;;;;;;;;;5031562;28;20040;-74
2022/10/14 06:47:53;;;;;;;38.88;18.88;;;;;;;;;;5031444;28;20546;-74
2022/10/14 06:50:19;;;;;;;34.38;19.00;;;;;;;;;;5030004;28;20049;-74
2022/10/14 06:52:45;;;;;;;37.90;19.23;;;;;;;;;;5029609;28;20031;-75
2022/10/14 06:55:10;;;;;;;35.10;18.80;;;;;;;;;;5031337;28;20504;-74
2022/10/14 06:57:35;;;;;;;33.70;18.90;;;;;;;;;;5031166;28;20483;-75
2022/10/14 07:00:01;;;;;;;34.97;18.77;;;;;;;;;;5031131;28;20025;-74
2022/10/14 07:02:26;;;;;;;33.10;18.23;;;;;;;;;;5031191;28;20037;-74
2022/10/14 07:04:51;;;;;;;34.45;18.90;;;;;;;;;;5029707;28;20099;-75
2022/10/14 07:07:16;;;;;;;41.13;19.52;;;;;;;;;;5031024;28;20112;-74
2022/10/14 07:09:42;;;;;;;35.47;18.83;;;;;;;;;;5031117;28;20094;-75
2022/10/14 07:12:07;;;;;;;31.75;18.60;;;;;;;;;;5030895;28;20025;-74
2022/10/14 07:14:32;;;;;;;38.78;18.73;;;;;;;;;;5029564;28;20060;-74
2022/10/14 07:16:59;;;;;;;31.92;18.30;;;;;;;;;;5030584;28;20079;-74
2022/10/14 07:19:24;;;;;;;33.63;19.52;;;;;;;;;;5030878;28;20025;-73
2022/10/14 07:21:50;;;;;;;34.92;19.05;;;;;;;;;;5030991;28;20025;-74
2022/10/14 07:24:15;;;;;;;38.88;19.55;;;;;;;;;;5030721;28;20082;-73
2022/10/14 07:26:40;;;;;;;36.10;18.90;;;;;;;;;;5030727;28;20034;-74
2022/10/14 07:29:06;;;;;;;32.58;18.45;;;;;;;;;;5030165;28;20132;-74
2022/10/14 07:31:32;;;;;;;29.27;18.00;;;;;;;;;;5029100;28;20025;-74
2022/10/14 07:33:58;;;;;;;32.17;18.30;;;;;;;;;;5030729;28;20040;-73
2022/10/14 07:36:24;;;;;;;37.17;19.15;;;;;;;;;;5029501;28;20453;-73
2022/10/14 07:38:49;;;;;;;33.85;18.42;;;;;;;;;;5029147;28;20053;-72
2022/10/14 07:41:18;;;;;;;32.88;18.90;;;;;;;;;;5030130;28;20067;-73
2022/10/14 07:43:51;;;;;;;32.35;18.60;;;;;;;;;;5030723;28;20099;-74
2022/10/14 07:46:27;;;;;;;32.05;18.08;;;;;;;;;;5030409;28;20025;-74
2022/10/14 07:48:53;;;;;;;31.67;17.67;;;;;;;;;;5030256;28;20100;-74
2022/10/14 07:51:18;;;;;;;35.72;19.42;;;;;;;;;;5029858;28;20128;-74
2022/10/14 07:53:44;;;;;;;36.95;19.67;;;;;;;;;;5029795;28;20032;-74
2022/10/14 07:56:09;;;;;;;35.60;18.10;;;;;;;;;;5028941;28;20032;-75
2022/10/14 07:58:34;;;;;;;38.72;18.77;;;;;;;;;;5030133;28;20029;-74
2022/10/14 08:00:59;;;;;;;34.35;18.20;;;;;;;;;;5029828;28;21848;-74
2022/10/14 08:03:25;;;;;;;38.55;19.55;;;;;;;;;;5028348;28;20033;-75
2022/10/14 08:06:00;;;;;;;40.53;18.75;;;;;;;;;;5030428;28;20036;-74
2022/10/14 08:08:27;;;;;;;38.40;19.85;;;;;;;;;;5029875;28;20508;-74
2022/10/14 08:11:01;;;;;;;35.55;19.00;;;;;;;;;;5029761;28;20129;-74
2022/10/14 08:13:27;;;;;;;29.83;18.30;;;;;;;;;;5030075;28;20030;-74
2022/10/14 08:15:53;;;;;;;37.65;18.67;;;;;;;;;;5029119;28;20091;-74
2022/10/14 08:18:18;;;;;;;38.58;19.10;;;;;;;;;;5028451;28;20033;-74
2022/10/14 08:20:43;;;;;;;37.88;19.60;;;;;;;;;;5029616;28;20033;-74
2022/10/14 08:23:10;;;;;;;35.47;18.40;;;;;;;;;;5028612;28;20335;-74
2022/10/14 08:25:36;;;;;;;38.85;18.58;;;;;;;;;;5028543;28;20601;-74
2022/10/14 08:28:02;;;;;;;35.95;19.02;;;;;;;;;;5028403;28;20083;-74
2022/10/14 08:30:27;;;;;;;33.72;18.73;;;;;;;;;;5029458;28;20037;-74
2022/10/14 08:32:53;;;;;;;36.70;18.15;;;;;;;;;;5028236;28;20053;-74
2022/10/14 08:35:18;;;;;;;32.50;17.77;;;;;;;;;;5029560;28;20029;-74
2022/10/14 08:37:43;;;;;;;36.85;17.75;;;;;;;;;;5029426;28;20026;-74
2022/10/14 08:40:14;;;;;;;36.40;18.80;;;;;;;;;;5029231;28;20579;-74
2022/10/14 08:43:00;;;;;;;30.17;17.55;;;;;;;;;;5028245;28;20053;-73
2022/10/14 08:45:32;;;;;;;35.28;18.25;;;;;;;;;;5029571;28;20842;-73
2022/10/14 08:48:01;;;;;;;34.20;18.58;;;;;;;;;;5029536;28;20037;-73
2022/10/14 08:50:35;;;;;;;35.65;18.40;;;;;;;;;;5028216;28;20032;-73
2022/10/14 08:53:13;;;;;;;35.33;18.83;;;;;;;;;;5028992;28;20386;-73
2022/10/14 08:55:43;;;;;;;31.33;18.00;;;;;;;;;;5029531;28;20096;-74
2022/10/14 08:58:22;;;;;;;33.80;18.73;;;;;;;;;;5028367;28;20409;-73
2022/10/14 09:00:50;;;;;;;31.40;18.48;;;;;;;;;;5029299;28;20501;-73
2022/10/14 09:03:31;;;;;;;34.00;18.17;;;;;;;;;;5029324;28;20538;-73
2022/10/14 09:06:06;;;;;;;32.88;18.52;;;;;;;;;;5028206;28;20044;-73
2022/10/14 09:08:51;;;;;;;34.40;18.10;;;;;;;;;;5029370;28;20040;-73
2022/10/14 09:11:20;;;;;;;33.58;18.52;;;;;;;;;;5029389;28;20033;-73
2022/10/14 09:13:57;;;;;;;36.05;18.52;;;;;;;;;;5028027;28;20406;-74
2022/10/14 09:16:27;;;;;;;31.80;18.05;;;;;;;;;;5029178;28;20048;-76
2022/10/14 09:18:56;;;;;;;32.15;17.10;;;;;;;;;;5030033;28;20025;-77
2022/10/14 09:21:31;;;;;;;30.02;17.05;;;;;;;;;;5032600;28;20152;-76
2022/10/14 09:24:15;;;;;;;32.10;17.23;;;;;;;;;;5032732;28;20037;-76
2022/10/14 09:26:46;;;;;;;31.63;16.45;;;;;;;;;;5033747;28;20025;-76
2022/10/14 09:29:31;;;;;;;31.17;15.60;;;;;;;;;;5036548;28;20029;-77
2022/10/14 09:32:10;;;;;;;29.42;16.40;;;;;;;;;;5037060;28;20393;-75
2022/10/14 09:34:38;;;;;;;28.90;15.73;;;;;;;;;;5035929;28;20028;-76
2022/10/14 09:37:21;;;;;;;29.65;16.35;;;;;;;;;;5036255;28;20128;-75
2022/10/14 09:39:47;;;;;;;36.90;15.80;;;;;;;;;;5036164;28;20025;-75
2022/10/14 09:42:18;;;;;;;25.67;15.65;;;;;;;;;;5034837;28;20025;-75
2022/10/14 09:44:43;;;;;;;28.27;16.30;;;;;;;;;;5034999;28;20084;-75
2022/10/14 09:47:12;;;;;;;31.90;16.33;;;;;;;;;;5036129;28;20467;-75
2022/10/14 09:49:41;;;;;;;27.90;15.68;;;;;;;;;;5035984;28;20075;-75
2022/10/14 09:52:09;;;;;;;32.65;15.70;;;;;;;;;;5034881;28;20398;-75
2022/10/14 09:54:34;;;;;;;28.90;16.05;;;;;;;;;;5036022;28;20104;-75
2022/10/14 09:57:06;;;;;;;29.35;16.40;;;;;;;;;;5035779;28;20104;-75
2022/10/14 09:59:37;;;;;;;29.88;15.93;;;;;;;;;;5035803;28;20422;-76
2022/10/14 10:02:04;;;;;;;34.30;15.40;;;;;;;;;;5035584;28;20053;-75
2022/10/14 10:04:43;;;;;;;25.63;14.80;;;;;;;;;;5035837;28;20021;-75
2022/10/14 10:07:29;;;;;;;25.52;14.23;;;;;;;;;;5035992;28;20021;-75
2022/10/14 10:10:00;;;;;;;27.50;14.70;;;;;;;;;;5034443;28;20025;-75
2022/10/14 10:12:32;;;;;;;29.48;15.18;;;;;;;;;;5035685;28;20079;-75
2022/10/14 10:15:03;;;;;;;26.95;14.85;;;;;;;;;;5035771;28;20033;-76
2022/10/14 10:17:34;;;;;;;27.45;15.15;;;;;;;;;;5035519;28;20120;-75
2022/10/14 10:20:15;;;;;;;29.05;15.30;;;;;;;;;;5035542;28;20021;-75
2022/10/14 10:22:41;;;;;;;26.17;14.70;;;;;;;;;;5035471;28;20022;-75
2022/10/14 10:25:07;;;;;;;25.58;14.70;;;;;;;;;;5035705;28;20032;-75
2022/10/14 10:27:36;;;;;;;29.60;14.52;;;;;;;;;;5035341;28;20104;-75
2022/10/14 10:30:31;;;;;;;23.25;12.70;;;;;;;;;;5035459;28;20035;-74
2022/10/14 10:33:19;;;;;;;25.70;12.93;;;;;;;;;;5031588;28;20037;-74
2022/10/14 10:36:01;;;;;;;21.02;12.15;;;;;;;;;;5035138;28;20471;-74
2022/10/14 10:38:44;;;;;;;24.23;12.27;;;;;;;;;;5035443;28;20067;-75
2022/10/14 10:41:15;;;;;;;18.05;11.85;;;;;;;;;;5035280;28;20026;-74
2022/10/14 10:43:53;;;;;;;19.45;11.80;;;;;;;;;;5033816;28;20037;-74
2022/10/14 10:46:39;;;;;;;29.13;11.32;;;;;;;;;;5034935;28;20033;-75
2022/10/14 10:49:37;;;;;;;22.05;11.43;;;;;;;;;;5034993;28;20364;-75
2022/10/14 10:52:15;;;;;;;20.42;10.57;;;;;;;;;;5033675;28;20406;-75
2022/10/14 10:54:56;;;;;;;18.17;9.85;;;;;;;;;;5035031;28;20475;-75
2022/10/14 10:57:30;;;;;;;20.48;11.13;;;;;;;;;;5033654;28;20491;-74
2022/10/14 11:00:09;;;;;;;16.92;10.40;;;;;;;;;;5034964;28;20029;-74
2022/10/14 11:02:55;;;;;;;16.67;9.77;;;;;;;;;;5034976;28;20033;-75
2022/10/14 11:05:45;;;;;;;15.55;9.30;;;;;;;;;;5034654;28;20407;-75
2022/10/14 11:14:31;;;;;;;15.63;10.13;;;;;;;;;;5034953;28;20048;-76
2022/10/14 11:17:23;;;;;;;18.15;10.48;;;;;;;;;;5034897;28;20025;-76
2022/10/14 11:19:53;;;;;;;20.90;10.80;;;;;;;;;;5034750;28;20029;-75
2022/10/14 11:22:41;;;;;;;21.20;10.18;;;;;;;;;;5034429;28;20022;-76
2022/10/14 11:25:37;;;;;;;20.35;10.02;;;;;;;;;;5034471;28;20025;-75
2022/10/14 11:28:37;;;;;;;18.25;9.90;;;;;;;;;;5034550;28;20071;-75
2022/10/14 11:31:25;;;;;;;20.40;9.93;;;;;;;;;;5032777;28;20021;-74
2022/10/14 11:34:19;;;;;;;17.38;10.25;;;;;;;;;;5034394;28;20032;-75
2022/10/14 11:37:00;;;;;;;17.13;10.05;;;;;;;;;;5025275;28;20037;-75
2022/10/14 11:39:48;;;;;;;16.27;9.68;;;;;;;;;;5034276;28;20025;-74
2022/10/14 11:42:31;;;;;;;25.67;10.73;;;;;;;;;;5034380;28;20372;-76
2022/10/14 11:45:11;;;;;;;19.42;10.10;;;;;;;;;;5034022;28;20021;-75
2022/10/14 11:47:39;;;;;;;19.27;10.25;;;;;;;;;;5033673;28;20033;-75
2022/10/14 11:50:39;;;;;;;17.90;10.40;;;;;;;;;;5033059;28;20033;-75
2022/10/14 11:53:13;;;;;;;17.85;9.50;;;;;;;;;;5022604;28;20037;-75
2022/10/14 11:55:45;;;;;;;16.30;9.82;;;;;;;;;;5032965;28;20025;-75
2022/10/14 11:58:16;;;;;;;16.92;8.80;;;;;;;;;;5033974;28;20057;-75
2022/10/14 12:00:46;;;;;;;17.13;9.52;;;;;;;;;;5033575;28;20033;-75
2022/10/14 12:03:19;;;;;;;12.15;7.78;;;;;;;;;;5033848;28;20026;-74
2022/10/14 12:06:05;;;;;;;13.10;8.05;;;;;;;;;;5033993;28;20030;-75
2022/10/14 12:09:05;;;;;;;14.40;7.72;;;;;;;;;;5033475;28;20060;-75
2022/10/14 12:11:46;;;;;;;15.63;8.20;;;;;;;;;;5033462;28;20017;-75
2022/10/14 12:14:26;;;;;;;14.18;7.45;;;;;;;;;;5033961;28;20086;-75
2022/10/14 12:16:52;;;;;;;13.68;7.35;;;;;;;;;;5033867;28;20554;-76
2022/10/14 12:19:23;;;;;;;13.45;6.57;;;;;;;;;;5033353;28;20056;-75
2022/10/14 12:22:13;;;;;;;15.55;7.55;;;;;;;;;;5033443;28;20029;-75
2022/10/14 12:24:42;;;;;;;14.40;6.90;;;;;;;;;;5033285;28;20022;-75
2022/10/14 12:27:11;;;;;;;15.45;7.97;;;;;;;;;;5033399;28;20487;-75
2022/10/14 12:29:43;;;;;;;12.63;7.43;;;;;;;;;;5032383;28;20033;-75
2022/10/14 12:32:22;;;;;;;12.20;7.40;;;;;;;;;;5033293;28;20562;-75
2022/10/14 12:34:55;;;;;;;14.15;7.35;;;;;;;;;;5033322;28;20056;-76
2022/10/14 12:37:24;;;;;;;12.65;8.23;;;;;;;;;;5032638;28;20017;-75
2022/10/14 12:40:02;;;;;;;12.65;7.25;;;;;;;;;;5033077;28;20025;-75
2022/10/14 12:42:29;;;;;;;23.20;10.75;;;;;;;;;;5032806;28;20029;-76
2022/10/14 12:45:00;;;;;;;18.85;10.63;;;;;;;;;;5033251;28;20025;-75
2022/10/14 12:47:35;;;;;;;12.80;8.02;;;;;;;;;;5033019;28;20437;-76
2022/10/14 12:50:04;;;;;;;14.80;8.25;;;;;;;;;;5033122;28;20026;-75
2022/10/14 12:52:34;;;;;;;20.20;9.43;;;;;;;;;;5033078;28;20026;-76
2022/10/14 12:55:03;;;;;;;15.52;9.07;;;;;;;;;;5031793;28;20024;-77
2022/10/14 12:57:34;;;;;;;17.75;9.38;;;;;;;;;;5031895;28;20486;-76
2022/10/14 13:00:09;;;;;;;15.02;9.32;;;;;;;;;;5031715;28;20025;-75
2022/10/14 13:02:43;;;;;;;16.02;9.23;;;;;;;;;;5035611;28;20029;-74
2022/10/14 13:05:45;;;;;;;15.45;8.70;;;;;;;;;;5035671;28;20116;-74
2022/10/14 13:08:25;;;;;;;16.58;9.07;;;;;;;;;;5005482;28;20034;-75
2022/10/14 13:10:53;;;;;;;15.00;9.00;;;;;;;;;;5036767;28;20025;-75
2022/10/14 13:13:37;;;;;;;16.90;9.30;;;;;;;;;;5036823;28;20025;-74
2022/10/14 13:16:05;;;;;;;15.68;9.75;;;;;;;;;;5035688;28;20026;-75
2022/10/14 13:18:48;;;;;;;18.65;10.23;;;;;;;;;;5036706;28;20112;-76
2022/10/14 13:21:52;;;;;;;20.92;9.45;;;;;;;;;;5035298;28;20395;-74
2022/10/14 13:24:37;;;;;;;24.42;11.02;;;;;;;;;;5036908;28;20395;-74
2022/10/14 13:27:19;;;;;;;21.00;11.57;;;;;;;;;;5036633;28;20034;-75
2022/10/14 13:30:03;;;;;;;22.85;12.48;;;;;;;;;;5036730;28;20467;-75
2022/10/14 13:32:50;;;;;;;23.90;12.73;;;;;;;;;;5036338;28;20132;-75
2022/10/14 13:35:47;;;;;;;23.40;13.70;;;;;;;;;;5036700;28;20037;-75
2022/10/14 13:38:16;;;;;;;26.10;15.38;;;;;;;;;;5036208;28;20391;-75
2022/10/14 13:40:50;;;;;;;27.63;14.35;;;;;;;;;;5034799;28;20022;-75
2022/10/14 13:43:27;;;;;;;24.77;14.98;;;;;;;;;;5036456;28;20037;-74
2022/10/14 13:46:04;;;;;;;25.75;15.45;;;;;;;;;;5034850;28;20434;-74
2022/10/14 13:48:36;;;;;;;28.00;16.15;;;;;;;;;;5036278;28;20440;-75
2022/10/14 13:51:23;;;;;;;29.17;16.15;;;;;;;;;;5034652;28;20106;-74
2022/10/14 13:53:57;;;;;;;29.20;15.63;;;;;;;;;;5036016;28;20022;-75
2022/10/14 13:56:30;;;;;;;27.38;16.73;;;;;;;;;;5036050;28;20030;-75
2022/10/14 13:58:56;;;;;;;29.45;15.85;;;;;;;;;;5036208;28;20033;-76
2022/10/14 14:01:37;;;;;;;28.20;16.45;;;;;;;;;;5035758;28;20041;-75
2022/10/14 14:04:02;;;;;;;29.60;16.45;;;;;;;;;;5035988;28;20038;-76
2022/10/14 14:06:28;;;;;;;33.88;17.13;;;;;;;;;;5035764;28;20026;-75
2022/10/14 14:08:57;;;;;;;26.30;16.27;;;;;;;;;;5035691;28;20021;-76
2022/10/14 14:11:33;;;;;;;28.63;16.25;;;;;;;;;;5035768;28;20029;-75
2022/10/14 14:14:17;;;;;;;30.10;17.65;;;;;;;;;;5033663;28;20030;-75
2022/10/14 14:16:57;;;;;;;31.10;17.50;;;;;;;;;;5035898;28;20025;-74
2022/10/14 14:19:30;;;;;;;30.92;17.40;;;;;;;;;;5034049;28;20026;-75
2022/10/14 14:22:07;;;;;;;33.83;17.27;;;;;;;;;;5034229;28;20118;-75
2022/10/14 14:24:35;;;;;;;32.90;18.10;;;;;;;;;;5035345;28;20025;-75
2022/10/14 14:27:01;;;;;;;29.90;17.38;;;;;;;;;;5035243;28;20080;-74
2022/10/14 14:29:30;;;;;;;31.65;17.05;;;;;;;;;;5035191;28;20033;-74
2022/10/14 14:31:58;;;;;;;31.92;16.63;;;;;;;;;;5033846;28;20461;-74
2022/10/14 14:34:23;;;;;;;31.48;17.27;;;;;;;;;;5035634;28;20028;-73
2022/10/14 14:36:49;;;;;;;30.83;16.98;;;;;;;;;;5035268;28;20025;-74
2022/10/14 14:39:22;;;;;;;26.58;15.88;;;;;;;;;;5033958;28;20052;-75
2022/10/14 14:41:56;;;;;;;28.00;16.52;;;;;;;;;;5035454;28;20483;-75
2022/10/14 14:44:24;;;;;;;;;;;;;;;;;;5035617;28;20029;-75
2022/10/14 14:46:51;;;;;;;27.55;15.27;;;;;;;;;;5034923;28;19909;-76